sensor_id;sensor_type;location;lat;lon;timestamp;P1;durP1;ratioP1;P2;durP2;ratioP2
19193;SDS011;9729;52.296;13.260;2022-09-25T00:01:33;5.63;;;5.03;;
19193;SDS011;9729;52.296;13.260;2022-09-25T00:04:00;8.33;;;5.73;;
19193;SDS011;9729;52.296;13.260;2022-09-25T00:06:27;6.77;;;5.40;;
19193;SDS011;9729;52.296;13.260;2022-09-25T00:08:55;7.80;;;5.27;;
19193;SDS011;9729;52.296;13.260;2022-09-25T00:11:23;10.13;;;5.50;;
19193;SDS011;9729;52.296;13.260;2022-09-25T00:13:52;8.57;;;6.23;;
19193;SDS011;9729;52.296;13.260;2022-09-25T00:16:20;9.90;;;5.63;;
19193;SDS011;9729;52.296;13.260;2022-09-25T00:18:50;6.03;;;5.10;;
19193;SDS011;9729;52.296;13.260;2022-09-25T00:21:34;8.50;;;5.00;;
19193;SDS011;9729;52.296;13.260;2022-09-25T00:24:02;12.20;;;7.27;;
19193;SDS011;9729;52.296;13.260;2022-09-25T00:26:32;8.67;;;5.60;;
19193;SDS011;9729;52.296;13.260;2022-09-25T00:28:59;7.53;;;5.33;;
19193;SDS011;9729;52.296;13.260;2022-09-25T00:31:27;6.63;;;5.70;;
19193;SDS011;9729;52.296;13.260;2022-09-25T00:33:55;9.23;;;5.33;;
19193;SDS011;9729;52.296;13.260;2022-09-25T00:36:23;14.43;;;5.73;;
19193;SDS011;9729;52.296;13.260;2022-09-25T00:38:50;8.30;;;5.43;;
19193;SDS011;9729;52.296;13.260;2022-09-25T00:41:19;7.87;;;5.50;;
19193;SDS011;9729;52.296;13.260;2022-09-25T00:43:52;11.73;;;5.43;;
19193;SDS011;9729;52.296;13.260;2022-09-25T00:46:21;7.07;;;6.03;;
19193;SDS011;9729;52.296;13.260;2022-09-25T00:48:50;8.13;;;6.00;;
19193;SDS011;9729;52.296;13.260;2022-09-25T00:51:19;11.80;;;6.17;;
19193;SDS011;9729;52.296;13.260;2022-09-25T00:53:47;7.03;;;6.10;;
19193;SDS011;9729;52.296;13.260;2022-09-25T00:56:13;7.97;;;6.17;;
19193;SDS011;9729;52.296;13.260;2022-09-25T00:58:40;10.10;;;5.27;;
19193;SDS011;9729;52.296;13.260;2022-09-25T01:01:08;8.10;;;5.87;;
19193;SDS011;9729;52.296;13.260;2022-09-25T01:03:35;7.13;;;5.27;;
19193;SDS011;9729;52.296;13.260;2022-09-25T01:06:05;7.73;;;5.40;;
19193;SDS011;9729;52.296;13.260;2022-09-25T01:08:32;6.60;;;5.73;;
19193;SDS011;9729;52.296;13.260;2022-09-25T01:10:59;7.97;;;6.40;;
19193;SDS011;9729;52.296;13.260;2022-09-25T01:13:25;7.80;;;5.97;;
19193;SDS011;9729;52.296;13.260;2022-09-25T01:15:53;8.60;;;6.47;;
19193;SDS011;9729;52.296;13.260;2022-09-25T01:18:28;11.40;;;6.53;;
19193;SDS011;9729;52.296;13.260;2022-09-25T01:21:05;7.43;;;6.17;;
19193;SDS011;9729;52.296;13.260;2022-09-25T01:27:11;9.63;;;6.23;;
19193;SDS011;9729;52.296;13.260;2022-09-25T01:29:43;8.13;;;6.47;;
19193;SDS011;9729;52.296;13.260;2022-09-25T01:32:17;9.70;;;6.53;;
19193;SDS011;9729;52.296;13.260;2022-09-25T01:34:49;8.13;;;7.27;;
19193;SDS011;9729;52.296;13.260;2022-09-25T01:37:21;11.40;;;7.00;;
19193;SDS011;9729;52.296;13.260;2022-09-25T01:39:52;7.37;;;6.17;;
19193;SDS011;9729;52.296;13.260;2022-09-25T01:42:22;9.13;;;6.80;;
19193;SDS011;9729;52.296;13.260;2022-09-25T01:44:53;11.67;;;6.80;;
19193;SDS011;9729;52.296;13.260;2022-09-25T01:47:25;8.33;;;6.73;;
19193;SDS011;9729;52.296;13.260;2022-09-25T01:49:54;8.93;;;6.60;;
19193;SDS011;9729;52.296;13.260;2022-09-25T01:52:24;10.20;;;6.77;;
19193;SDS011;9729;52.296;13.260;2022-09-25T01:54:54;10.33;;;7.30;;
19193;SDS011;9729;52.296;13.260;2022-09-25T01:57:25;8.67;;;7.30;;
19193;SDS011;9729;52.296;13.260;2022-09-25T01:59:58;8.47;;;6.80;;
19193;SDS011;9729;52.296;13.260;2022-09-25T02:02:28;14.03;;;9.10;;
19193;SDS011;9729;52.296;13.260;2022-09-25T02:04:58;18.07;;;8.50;;
19193;SDS011;9729;52.296;13.260;2022-09-25T02:07:30;11.13;;;7.07;;
19193;SDS011;9729;52.296;13.260;2022-09-25T02:10:02;9.57;;;7.13;;
19193;SDS011;9729;52.296;13.260;2022-09-25T02:12:31;12.53;;;7.97;;
19193;SDS011;9729;52.296;13.260;2022-09-25T02:15:03;10.60;;;7.83;;
19193;SDS011;9729;52.296;13.260;2022-09-25T02:17:33;10.10;;;7.17;;
19193;SDS011;9729;52.296;13.260;2022-09-25T02:20:22;12.33;;;8.57;;
19193;SDS011;9729;52.296;13.260;2022-09-25T02:23:01;8.40;;;7.20;;
19193;SDS011;9729;52.296;13.260;2022-09-25T02:25:34;10.87;;;8.20;;
19193;SDS011;9729;52.296;13.260;2022-09-25T02:28:02;10.20;;;7.60;;
19193;SDS011;9729;52.296;13.260;2022-09-25T02:30:30;8.70;;;7.50;;
19193;SDS011;9729;52.296;13.260;2022-09-25T02:32:56;10.97;;;7.53;;
19193;SDS011;9729;52.296;13.260;2022-09-25T02:35:23;13.53;;;8.37;;
19193;SDS011;9729;52.296;13.260;2022-09-25T02:37:50;8.70;;;7.53;;
19193;SDS011;9729;52.296;13.260;2022-09-25T02:40:20;12.43;;;8.07;;
19193;SDS011;9729;52.296;13.260;2022-09-25T02:42:48;11.87;;;7.83;;
19193;SDS011;9729;52.296;13.260;2022-09-25T02:45:20;10.70;;;8.10;;
19193;SDS011;9729;52.296;13.260;2022-09-25T02:47:55;12.43;;;7.87;;
19193;SDS011;9729;52.296;13.260;2022-09-25T02:50:28;11.70;;;7.97;;
19193;SDS011;9729;52.296;13.260;2022-09-25T02:53:00;9.20;;;7.60;;
19193;SDS011;9729;52.296;13.260;2022-09-25T02:55:32;9.97;;;7.60;;
19193;SDS011;9729;52.296;13.260;2022-09-25T02:58:03;9.93;;;7.20;;
19193;SDS011;9729;52.296;13.260;2022-09-25T03:00:33;13.80;;;8.13;;
19193;SDS011;9729;52.296;13.260;2022-09-25T03:03:03;10.53;;;7.10;;
19193;SDS011;9729;52.296;13.260;2022-09-25T03:05:38;10.07;;;7.70;;
19193;SDS011;9729;52.296;13.260;2022-09-25T03:08:05;10.87;;;7.53;;
19193;SDS011;9729;52.296;13.260;2022-09-25T03:10:50;8.73;;;7.00;;
19193;SDS011;9729;52.296;13.260;2022-09-25T03:13:17;13.80;;;7.33;;
19193;SDS011;9729;52.296;13.260;2022-09-25T03:15:45;9.17;;;7.23;;
19193;SDS011;9729;52.296;13.260;2022-09-25T03:18:16;13.00;;;7.80;;
19193;SDS011;9729;52.296;13.260;2022-09-25T03:20:43;8.67;;;7.50;;
19193;SDS011;9729;52.296;13.260;2022-09-25T03:23:09;10.47;;;7.73;;
19193;SDS011;9729;52.296;13.260;2022-09-25T03:25:36;9.90;;;8.13;;
19193;SDS011;9729;52.296;13.260;2022-09-25T03:28:02;11.87;;;8.10;;
19193;SDS011;9729;52.296;13.260;2022-09-25T03:30:29;9.87;;;7.87;;
19193;SDS011;9729;52.296;13.260;2022-09-25T03:32:55;10.20;;;8.20;;
19193;SDS011;9729;52.296;13.260;2022-09-25T03:35:23;10.67;;;8.00;;
19193;SDS011;9729;52.296;13.260;2022-09-25T03:37:50;10.97;;;8.00;;
19193;SDS011;9729;52.296;13.260;2022-09-25T03:40:16;11.43;;;8.43;;
19193;SDS011;9729;52.296;13.260;2022-09-25T03:42:43;14.57;;;8.90;;
19193;SDS011;9729;52.296;13.260;2022-09-25T03:45:09;10.53;;;8.90;;
19193;SDS011;9729;52.296;13.260;2022-09-25T03:47:37;12.57;;;8.73;;
19193;SDS011;9729;52.296;13.260;2022-09-25T03:50:04;9.47;;;8.03;;
19193;SDS011;9729;52.296;13.260;2022-09-25T03:52:33;10.03;;;7.87;;
19193;SDS011;9729;52.296;13.260;2022-09-25T03:55:00;12.87;;;8.27;;
19193;SDS011;9729;52.296;13.260;2022-09-25T03:57:26;10.60;;;7.77;;
19193;SDS011;9729;52.296;13.260;2022-09-25T03:59:52;10.23;;;8.03;;
19193;SDS011;9729;52.296;13.260;2022-09-25T04:02:19;10.00;;;8.50;;
19193;SDS011;9729;52.296;13.260;2022-09-25T04:04:45;17.97;;;8.63;;
19193;SDS011;9729;52.296;13.260;2022-09-25T04:07:11;11.90;;;9.07;;
19193;SDS011;9729;52.296;13.260;2022-09-25T04:09:39;12.03;;;9.13;;
19193;SDS011;9729;52.296;13.260;2022-09-25T04:12:07;10.10;;;8.77;;
19193;SDS011;9729;52.296;13.260;2022-09-25T04:14:35;13.83;;;9.20;;
19193;SDS011;9729;52.296;13.260;2022-09-25T04:17:01;19.20;;;10.17;;
19193;SDS011;9729;52.296;13.260;2022-09-25T04:19:27;10.43;;;8.17;;
19193;SDS011;9729;52.296;13.260;2022-09-25T04:21:54;13.77;;;9.87;;
19193;SDS011;9729;52.296;13.260;2022-09-25T04:24:20;12.33;;;9.73;;
19193;SDS011;9729;52.296;13.260;2022-09-25T04:27:05;12.53;;;9.83;;
19193;SDS011;9729;52.296;13.260;2022-09-25T04:29:33;14.87;;;9.97;;
19193;SDS011;9729;52.296;13.260;2022-09-25T04:31:59;14.20;;;10.03;;
19193;SDS011;9729;52.296;13.260;2022-09-25T04:34:44;20.70;;;11.00;;
19193;SDS011;9729;52.296;13.260;2022-09-25T04:37:10;16.33;;;10.93;;
19193;SDS011;9729;52.296;13.260;2022-09-25T04:39:38;15.53;;;10.07;;
19193;SDS011;9729;52.296;13.260;2022-09-25T04:42:06;18.70;;;10.90;;
19193;SDS011;9729;52.296;13.260;2022-09-25T04:44:33;13.33;;;10.40;;
19193;SDS011;9729;52.296;13.260;2022-09-25T04:46:59;16.27;;;11.00;;
19193;SDS011;9729;52.296;13.260;2022-09-25T04:49:28;15.17;;;11.07;;
19193;SDS011;9729;52.296;13.260;2022-09-25T04:51:54;13.40;;;10.37;;
19193;SDS011;9729;52.296;13.260;2022-09-25T04:54:21;16.07;;;10.60;;
19193;SDS011;9729;52.296;13.260;2022-09-25T04:56:47;16.00;;;11.63;;
19193;SDS011;9729;52.296;13.260;2022-09-25T04:59:15;19.93;;;10.57;;
19193;SDS011;9729;52.296;13.260;2022-09-25T05:01:41;17.27;;;10.30;;
19193;SDS011;9729;52.296;13.260;2022-09-25T05:04:07;17.10;;;11.13;;
19193;SDS011;9729;52.296;13.260;2022-09-25T05:06:34;12.10;;;10.13;;
19193;SDS011;9729;52.296;13.260;2022-09-25T05:09:01;12.40;;;10.10;;
19193;SDS011;9729;52.296;13.260;2022-09-25T05:11:27;14.60;;;10.70;;
19193;SDS011;9729;52.296;13.260;2022-09-25T05:13:54;12.07;;;10.07;;
19193;SDS011;9729;52.296;13.260;2022-09-25T05:16:23;16.93;;;10.17;;
19193;SDS011;9729;52.296;13.260;2022-09-25T05:18:51;14.47;;;10.67;;
19193;SDS011;9729;52.296;13.260;2022-09-25T05:21:18;13.93;;;10.50;;
19193;SDS011;9729;52.296;13.260;2022-09-25T05:23:44;17.37;;;10.07;;
19193;SDS011;9729;52.296;13.260;2022-09-25T05:26:11;16.40;;;10.57;;
19193;SDS011;9729;52.296;13.260;2022-09-25T05:28:37;14.57;;;10.90;;
19193;SDS011;9729;52.296;13.260;2022-09-25T05:31:04;21.10;;;12.03;;
19193;SDS011;9729;52.296;13.260;2022-09-25T05:33:33;16.03;;;10.57;;
19193;SDS011;9729;52.296;13.260;2022-09-25T05:35:59;17.53;;;12.50;;
19193;SDS011;9729;52.296;13.260;2022-09-25T05:38:26;14.83;;;11.20;;
19193;SDS011;9729;52.296;13.260;2022-09-25T05:40:53;17.83;;;11.50;;
19193;SDS011;9729;52.296;13.260;2022-09-25T05:43:20;14.73;;;10.93;;
19193;SDS011;9729;52.296;13.260;2022-09-25T05:45:51;16.73;;;12.50;;
19193;SDS011;9729;52.296;13.260;2022-09-25T05:48:18;15.57;;;11.70;;
19193;SDS011;9729;52.296;13.260;2022-09-25T05:50:50;16.20;;;11.33;;
19193;SDS011;9729;52.296;13.260;2022-09-25T05:53:17;15.60;;;11.63;;
19193;SDS011;9729;52.296;13.260;2022-09-25T05:55:47;16.17;;;10.60;;
19193;SDS011;9729;52.296;13.260;2022-09-25T05:58:14;13.90;;;10.97;;
19193;SDS011;9729;52.296;13.260;2022-09-25T06:00:40;15.30;;;11.27;;
19193;SDS011;9729;52.296;13.260;2022-09-25T06:03:07;18.10;;;13.23;;
19193;SDS011;9729;52.296;13.260;2022-09-25T06:05:35;19.43;;;12.13;;
19193;SDS011;9729;52.296;13.260;2022-09-25T06:08:03;29.30;;;18.13;;
19193;SDS011;9729;52.296;13.260;2022-09-25T06:10:30;20.33;;;15.20;;
19193;SDS011;9729;52.296;13.260;2022-09-25T06:12:56;29.37;;;17.10;;
19193;SDS011;9729;52.296;13.260;2022-09-25T06:15:23;23.10;;;14.97;;
19193;SDS011;9729;52.296;13.260;2022-09-25T06:17:53;22.20;;;14.10;;
19193;SDS011;9729;52.296;13.260;2022-09-25T06:20:20;16.27;;;12.60;;
19193;SDS011;9729;52.296;13.260;2022-09-25T06:22:50;17.80;;;12.87;;
19193;SDS011;9729;52.296;13.260;2022-09-25T06:25:18;14.73;;;12.47;;
19193;SDS011;9729;52.296;13.260;2022-09-25T06:27:45;17.13;;;11.77;;
19193;SDS011;9729;52.296;13.260;2022-09-25T06:30:12;14.73;;;11.20;;
19193;SDS011;9729;52.296;13.260;2022-09-25T06:32:39;15.00;;;11.63;;
19193;SDS011;9729;52.296;13.260;2022-09-25T06:35:05;16.90;;;11.60;;
19193;SDS011;9729;52.296;13.260;2022-09-25T06:37:32;15.27;;;11.83;;
19193;SDS011;9729;52.296;13.260;2022-09-25T06:39:59;16.87;;;11.97;;
19193;SDS011;9729;52.296;13.260;2022-09-25T06:42:27;12.97;;;10.53;;
19193;SDS011;9729;52.296;13.260;2022-09-25T06:44:53;15.73;;;11.57;;
19193;SDS011;9729;52.296;13.260;2022-09-25T06:47:20;19.67;;;11.67;;
19193;SDS011;9729;52.296;13.260;2022-09-25T06:49:46;16.57;;;10.97;;
19193;SDS011;9729;52.296;13.260;2022-09-25T06:52:13;15.57;;;10.33;;
19193;SDS011;9729;52.296;13.260;2022-09-25T06:54:39;18.43;;;10.83;;
19193;SDS011;9729;52.296;13.260;2022-09-25T06:57:05;16.03;;;10.27;;
19193;SDS011;9729;52.296;13.260;2022-09-25T06:59:35;14.37;;;10.40;;
19193;SDS011;9729;52.296;13.260;2022-09-25T07:02:01;13.30;;;10.67;;
19193;SDS011;9729;52.296;13.260;2022-09-25T07:04:48;16.87;;;10.83;;
19193;SDS011;9729;52.296;13.260;2022-09-25T07:07:15;17.73;;;11.17;;
19193;SDS011;9729;52.296;13.260;2022-09-25T07:09:43;14.73;;;11.47;;
19193;SDS011;9729;52.296;13.260;2022-09-25T07:12:09;19.47;;;10.80;;
19193;SDS011;9729;52.296;13.260;2022-09-25T07:14:37;14.70;;;10.90;;
19193;SDS011;9729;52.296;13.260;2022-09-25T07:17:06;14.17;;;10.80;;
19193;SDS011;9729;52.296;13.260;2022-09-25T07:19:32;15.23;;;10.13;;
19193;SDS011;9729;52.296;13.260;2022-09-25T07:21:59;19.00;;;10.90;;
19193;SDS011;9729;52.296;13.260;2022-09-25T07:24:27;21.57;;;10.50;;
19193;SDS011;9729;52.296;13.260;2022-09-25T07:26:54;19.40;;;11.00;;
19193;SDS011;9729;52.296;13.260;2022-09-25T07:29:20;14.67;;;10.13;;
19193;SDS011;9729;52.296;13.260;2022-09-25T07:31:48;12.20;;;9.83;;
19193;SDS011;9729;52.296;13.260;2022-09-25T07:34:14;19.17;;;10.50;;
19193;SDS011;9729;52.296;13.260;2022-09-25T07:36:40;14.70;;;11.70;;
19193;SDS011;9729;52.296;13.260;2022-09-25T07:39:07;18.87;;;10.63;;
19193;SDS011;9729;52.296;13.260;2022-09-25T07:41:34;15.27;;;11.10;;
19193;SDS011;9729;52.296;13.260;2022-09-25T07:44:02;17.03;;;11.00;;
19193;SDS011;9729;52.296;13.260;2022-09-25T07:46:28;13.67;;;11.40;;
19193;SDS011;9729;52.296;13.260;2022-09-25T07:48:57;15.37;;;11.13;;
19193;SDS011;9729;52.296;13.260;2022-09-25T07:51:24;14.33;;;11.70;;
19193;SDS011;9729;52.296;13.260;2022-09-25T07:53:51;19.47;;;12.20;;
19193;SDS011;9729;52.296;13.260;2022-09-25T07:56:17;17.40;;;11.33;;
19193;SDS011;9729;52.296;13.260;2022-09-25T07:58:44;22.87;;;11.43;;
19193;SDS011;9729;52.296;13.260;2022-09-25T08:01:11;18.80;;;11.70;;
19193;SDS011;9729;52.296;13.260;2022-09-25T08:03:38;17.57;;;11.83;;
19193;SDS011;9729;52.296;13.260;2022-09-25T08:06:07;15.10;;;11.27;;
19193;SDS011;9729;52.296;13.260;2022-09-25T08:08:35;13.40;;;11.43;;
19193;SDS011;9729;52.296;13.260;2022-09-25T08:11:03;14.17;;;12.20;;
19193;SDS011;9729;52.296;13.260;2022-09-25T08:13:30;17.10;;;12.53;;
19193;SDS011;9729;52.296;13.260;2022-09-25T08:15:58;14.87;;;12.13;;
19193;SDS011;9729;52.296;13.260;2022-09-25T08:18:26;19.57;;;12.63;;
19193;SDS011;9729;52.296;13.260;2022-09-25T08:20:52;16.73;;;12.43;;
19193;SDS011;9729;52.296;13.260;2022-09-25T08:23:20;18.67;;;11.90;;
19193;SDS011;9729;52.296;13.260;2022-09-25T08:25:46;18.20;;;12.20;;
19193;SDS011;9729;52.296;13.260;2022-09-25T08:28:14;18.80;;;13.93;;
19193;SDS011;9729;52.296;13.260;2022-09-25T08:30:40;17.60;;;12.17;;
19193;SDS011;9729;52.296;13.260;2022-09-25T08:33:08;16.23;;;11.93;;
19193;SDS011;9729;52.296;13.260;2022-09-25T08:35:36;16.90;;;12.10;;
19193;SDS011;9729;52.296;13.260;2022-09-25T08:38:02;15.77;;;12.93;;
19193;SDS011;9729;52.296;13.260;2022-09-25T08:40:31;16.87;;;12.27;;
19193;SDS011;9729;52.296;13.260;2022-09-25T08:42:57;19.47;;;12.87;;
19193;SDS011;9729;52.296;13.260;2022-09-25T08:45:26;17.10;;;12.53;;
19193;SDS011;9729;52.296;13.260;2022-09-25T08:48:17;14.13;;;11.63;;
19193;SDS011;9729;52.296;13.260;2022-09-25T08:51:03;17.07;;;11.87;;
19193;SDS011;9729;52.296;13.260;2022-09-25T08:53:31;16.20;;;12.37;;
19193;SDS011;9729;52.296;13.260;2022-09-25T08:55:59;15.17;;;12.27;;
19193;SDS011;9729;52.296;13.260;2022-09-25T08:58:42;16.13;;;12.10;;
19193;SDS011;9729;52.296;13.260;2022-09-25T09:01:11;16.97;;;12.33;;
19193;SDS011;9729;52.296;13.260;2022-09-25T09:03:43;15.40;;;12.13;;
19193;SDS011;9729;52.296;13.260;2022-09-25T09:06:15;15.33;;;12.40;;
19193;SDS011;9729;52.296;13.260;2022-09-25T09:08:43;16.20;;;11.73;;
19193;SDS011;9729;52.296;13.260;2022-09-25T09:11:17;17.37;;;11.93;;
19193;SDS011;9729;52.296;13.260;2022-09-25T09:13:48;15.50;;;11.07;;
19193;SDS011;9729;52.296;13.260;2022-09-25T09:16:18;18.90;;;11.87;;
19193;SDS011;9729;52.296;13.260;2022-09-25T09:18:48;16.23;;;11.70;;
19193;SDS011;9729;52.296;13.260;2022-09-25T09:21:15;16.77;;;11.47;;
19193;SDS011;9729;52.296;13.260;2022-09-25T09:23:53;16.63;;;13.13;;
19193;SDS011;9729;52.296;13.260;2022-09-25T09:26:27;13.33;;;11.63;;
19193;SDS011;9729;52.296;13.260;2022-09-25T09:29:00;18.10;;;11.90;;
19193;SDS011;9729;52.296;13.260;2022-09-25T09:31:35;16.90;;;12.77;;
19193;SDS011;9729;52.296;13.260;2022-09-25T09:34:23;15.20;;;11.30;;
19193;SDS011;9729;52.296;13.260;2022-09-25T09:36:56;16.90;;;12.17;;
19193;SDS011;9729;52.296;13.260;2022-09-25T09:39:28;13.87;;;11.13;;
19193;SDS011;9729;52.296;13.260;2022-09-25T09:42:04;15.00;;;11.20;;
19193;SDS011;9729;52.296;13.260;2022-09-25T09:44:38;14.73;;;12.33;;
19193;SDS011;9729;52.296;13.260;2022-09-25T09:47:20;15.07;;;11.60;;
19193;SDS011;9729;52.296;13.260;2022-09-25T09:49:56;18.77;;;12.70;;
19193;SDS011;9729;52.296;13.260;2022-09-25T09:52:27;16.13;;;13.50;;
19193;SDS011;9729;52.296;13.260;2022-09-25T09:54:56;16.20;;;11.30;;
19193;SDS011;9729;52.296;13.260;2022-09-25T09:57:28;17.03;;;13.23;;
19193;SDS011;9729;52.296;13.260;2022-09-25T09:59:56;18.60;;;13.27;;
19193;SDS011;9729;52.296;13.260;2022-09-25T10:02:28;19.83;;;13.83;;
19193;SDS011;9729;52.296;13.260;2022-09-25T10:04:56;16.33;;;11.77;;
19193;SDS011;9729;52.296;13.260;2022-09-25T10:07:24;15.23;;;11.57;;
19193;SDS011;9729;52.296;13.260;2022-09-25T10:09:52;15.47;;;11.87;;
19193;SDS011;9729;52.296;13.260;2022-09-25T10:12:22;14.87;;;10.83;;
19193;SDS011;9729;52.296;13.260;2022-09-25T10:14:54;15.53;;;11.33;;
19193;SDS011;9729;52.296;13.260;2022-09-25T10:17:20;13.60;;;11.00;;
19193;SDS011;9729;52.296;13.260;2022-09-25T10:19:50;14.80;;;11.83;;
19193;SDS011;9729;52.296;13.260;2022-09-25T10:22:18;20.80;;;12.57;;
19193;SDS011;9729;52.296;13.260;2022-09-25T10:24:53;15.93;;;11.73;;
19193;SDS011;9729;52.296;13.260;2022-09-25T10:27:27;12.87;;;10.77;;
19193;SDS011;9729;52.296;13.260;2022-09-25T10:30:03;16.27;;;12.03;;
19193;SDS011;9729;52.296;13.260;2022-09-25T10:32:32;17.60;;;10.57;;
19193;SDS011;9729;52.296;13.260;2022-09-25T10:35:00;13.73;;;10.20;;
19193;SDS011;9729;52.296;13.260;2022-09-25T10:37:29;15.00;;;10.23;;
19193;SDS011;9729;52.296;13.260;2022-09-25T10:39:59;13.23;;;9.63;;
19193;SDS011;9729;52.296;13.260;2022-09-25T10:42:34;15.43;;;9.87;;
19193;SDS011;9729;52.296;13.260;2022-09-25T10:45:25;12.70;;;8.97;;
19193;SDS011;9729;52.296;13.260;2022-09-25T10:47:54;16.90;;;9.77;;
19193;SDS011;9729;52.296;13.260;2022-09-25T10:50:38;11.60;;;8.87;;
19193;SDS011;9729;52.296;13.260;2022-09-25T10:53:04;10.43;;;8.80;;
19193;SDS011;9729;52.296;13.260;2022-09-25T10:55:32;15.57;;;9.70;;
19193;SDS011;9729;52.296;13.260;2022-09-25T10:58:05;10.83;;;8.43;;
19193;SDS011;9729;52.296;13.260;2022-09-25T11:00:39;12.20;;;7.77;;
19193;SDS011;9729;52.296;13.260;2022-09-25T11:03:12;11.07;;;8.00;;
19193;SDS011;9729;52.296;13.260;2022-09-25T11:05:47;10.63;;;8.53;;
19193;SDS011;9729;52.296;13.260;2022-09-25T11:08:16;8.97;;;7.90;;
19193;SDS011;9729;52.296;13.260;2022-09-25T11:10:45;12.93;;;7.73;;
19193;SDS011;9729;52.296;13.260;2022-09-25T11:13:18;11.33;;;8.77;;
19193;SDS011;9729;52.296;13.260;2022-09-25T11:15:46;12.63;;;8.87;;
19193;SDS011;9729;52.296;13.260;2022-09-25T11:20:59;9.27;;;7.50;;
19193;SDS011;9729;52.296;13.260;2022-09-25T11:23:27;11.87;;;7.50;;
19193;SDS011;9729;52.296;13.260;2022-09-25T11:26:00;9.93;;;7.57;;
19193;SDS011;9729;52.296;13.260;2022-09-25T11:28:33;8.30;;;6.63;;
19193;SDS011;9729;52.296;13.260;2022-09-25T11:31:04;13.53;;;7.77;;
19193;SDS011;9729;52.296;13.260;2022-09-25T11:33:41;9.17;;;6.87;;
19193;SDS011;9729;52.296;13.260;2022-09-25T11:36:12;7.97;;;6.40;;
19193;SDS011;9729;52.296;13.260;2022-09-25T11:38:42;9.63;;;6.90;;
19193;SDS011;9729;52.296;13.260;2022-09-25T11:41:31;10.07;;;7.63;;
19193;SDS011;9729;52.296;13.260;2022-09-25T11:44:06;10.53;;;6.57;;
19193;SDS011;9729;52.296;13.260;2022-09-25T11:46:38;8.83;;;6.23;;
19193;SDS011;9729;52.296;13.260;2022-09-25T11:49:11;8.30;;;7.00;;
19193;SDS011;9729;52.296;13.260;2022-09-25T11:54:43;8.53;;;6.93;;
19193;SDS011;9729;52.296;13.260;2022-09-25T11:57:18;14.37;;;6.97;;
19193;SDS011;9729;52.296;13.260;2022-09-25T11:59:54;10.20;;;7.47;;
19193;SDS011;9729;52.296;13.260;2022-09-25T12:02:30;14.80;;;7.33;;
19193;SDS011;9729;52.296;13.260;2022-09-25T12:05:23;10.27;;;6.80;;
19193;SDS011;9729;52.296;13.260;2022-09-25T12:08:06;9.10;;;6.60;;
19193;SDS011;9729;52.296;13.260;2022-09-25T12:10:40;10.23;;;7.93;;
19193;SDS011;9729;52.296;13.260;2022-09-25T12:13:16;10.60;;;7.30;;
19193;SDS011;9729;52.296;13.260;2022-09-25T12:15:51;10.37;;;6.97;;
19193;SDS011;9729;52.296;13.260;2022-09-25T12:18:27;9.17;;;7.20;;
19193;SDS011;9729;52.296;13.260;2022-09-25T12:21:03;9.00;;;7.10;;
19193;SDS011;9729;52.296;13.260;2022-09-25T12:23:32;9.80;;;6.93;;
19193;SDS011;9729;52.296;13.260;2022-09-25T12:26:02;7.73;;;6.20;;
19193;SDS011;9729;52.296;13.260;2022-09-25T12:28:37;9.27;;;6.97;;
19193;SDS011;9729;52.296;13.260;2022-09-25T12:31:18;11.37;;;6.17;;
19193;SDS011;9729;52.296;13.260;2022-09-25T12:33:50;5.00;;;4.50;;
19193;SDS011;9729;52.296;13.260;2022-09-25T12:36:21;12.00;;;5.67;;
19193;SDS011;9729;52.296;13.260;2022-09-25T12:38:50;9.30;;;5.47;;
19193;SDS011;9729;52.296;13.260;2022-09-25T12:41:21;8.27;;;5.13;;
19193;SDS011;9729;52.296;13.260;2022-09-25T12:43:53;6.70;;;4.83;;
19193;SDS011;9729;52.296;13.260;2022-09-25T12:46:26;6.47;;;5.20;;
19193;SDS011;9729;52.296;13.260;2022-09-25T12:48:56;5.83;;;4.87;;
19193;SDS011;9729;52.296;13.260;2022-09-25T12:51:27;5.13;;;4.63;;
19193;SDS011;9729;52.296;13.260;2022-09-25T12:53:59;7.70;;;5.23;;
19193;SDS011;9729;52.296;13.260;2022-09-25T12:56:28;5.40;;;4.73;;
19193;SDS011;9729;52.296;13.260;2022-09-25T12:59:00;6.20;;;5.07;;
19193;SDS011;9729;52.296;13.260;2022-09-25T13:01:32;8.10;;;4.93;;
19193;SDS011;9729;52.296;13.260;2022-09-25T13:04:05;9.37;;;5.83;;
19193;SDS011;9729;52.296;13.260;2022-09-25T13:06:42;8.23;;;4.57;;
19193;SDS011;9729;52.296;13.260;2022-09-25T13:09:14;5.83;;;5.30;;
19193;SDS011;9729;52.296;13.260;2022-09-25T13:11:45;9.00;;;5.53;;
19193;SDS011;9729;52.296;13.260;2022-09-25T13:14:15;9.70;;;5.20;;
19193;SDS011;9729;52.296;13.260;2022-09-25T13:16:48;6.17;;;5.57;;
19193;SDS011;9729;52.296;13.260;2022-09-25T13:19:22;7.67;;;4.80;;
19193;SDS011;9729;52.296;13.260;2022-09-25T13:21:56;9.30;;;5.27;;
19193;SDS011;9729;52.296;13.260;2022-09-25T13:24:25;10.07;;;5.93;;
19193;SDS011;9729;52.296;13.260;2022-09-25T13:26:52;10.43;;;6.83;;
19193;SDS011;9729;52.296;13.260;2022-09-25T13:29:21;9.17;;;5.87;;
19193;SDS011;9729;52.296;13.260;2022-09-25T13:31:49;7.30;;;6.10;;
19193;SDS011;9729;52.296;13.260;2022-09-25T13:34:17;5.60;;;5.07;;
19193;SDS011;9729;52.296;13.260;2022-09-25T13:36:47;7.27;;;5.00;;
19193;SDS011;9729;52.296;13.260;2022-09-25T13:39:24;9.13;;;6.63;;
19193;SDS011;9729;52.296;13.260;2022-09-25T13:42:13;8.60;;;6.53;;
19193;SDS011;9729;52.296;13.260;2022-09-25T13:47:53;6.17;;;5.57;;
19193;SDS011;9729;52.296;13.260;2022-09-25T13:50:25;7.73;;;5.80;;
19193;SDS011;9729;52.296;13.260;2022-09-25T13:53:00;6.13;;;5.53;;
19193;SDS011;9729;52.296;13.260;2022-09-25T13:58:58;7.03;;;5.50;;
19193;SDS011;9729;52.296;13.260;2022-09-25T14:01:31;14.17;;;6.53;;
19193;SDS011;9729;52.296;13.260;2022-09-25T14:04:00;10.30;;;6.10;;
19193;SDS011;9729;52.296;13.260;2022-09-25T14:06:34;7.43;;;5.47;;
19193;SDS011;9729;52.296;13.260;2022-09-25T14:09:01;6.57;;;5.73;;
19193;SDS011;9729;52.296;13.260;2022-09-25T14:11:32;7.53;;;6.33;;
19193;SDS011;9729;52.296;13.260;2022-09-25T14:14:03;7.13;;;5.40;;
19193;SDS011;9729;52.296;13.260;2022-09-25T14:16:32;10.03;;;6.27;;
19193;SDS011;9729;52.296;13.260;2022-09-25T14:19:02;7.10;;;6.03;;
19193;SDS011;9729;52.296;13.260;2022-09-25T14:21:30;9.83;;;6.47;;
19193;SDS011;9729;52.296;13.260;2022-09-25T14:24:10;8.10;;;6.07;;
19193;SDS011;9729;52.296;13.260;2022-09-25T14:26:43;8.13;;;5.47;;
19193;SDS011;9729;52.296;13.260;2022-09-25T14:29:12;6.60;;;5.87;;
19193;SDS011;9729;52.296;13.260;2022-09-25T14:31:42;9.93;;;5.90;;
19193;SDS011;9729;52.296;13.260;2022-09-25T14:37:11;9.57;;;6.03;;
19193;SDS011;9729;52.296;13.260;2022-09-25T14:39:50;7.00;;;6.30;;
19193;SDS011;9729;52.296;13.260;2022-09-25T14:45:25;9.33;;;6.50;;
19193;SDS011;9729;52.296;13.260;2022-09-25T14:48:05;10.77;;;6.53;;
19193;SDS011;9729;52.296;13.260;2022-09-25T14:50:37;9.37;;;7.13;;
19193;SDS011;9729;52.296;13.260;2022-09-25T14:53:10;8.70;;;6.73;;
19193;SDS011;9729;52.296;13.260;2022-09-25T14:55:48;10.33;;;7.40;;
19193;SDS011;9729;52.296;13.260;2022-09-25T14:58:17;12.37;;;8.23;;
19193;SDS011;9729;52.296;13.260;2022-09-25T15:00:46;8.30;;;7.27;;
19193;SDS011;9729;52.296;13.260;2022-09-25T15:03:14;9.07;;;6.90;;
19193;SDS011;9729;52.296;13.260;2022-09-25T15:05:45;8.17;;;7.37;;
19193;SDS011;9729;52.296;13.260;2022-09-25T15:08:18;8.97;;;7.67;;
19193;SDS011;9729;52.296;13.260;2022-09-25T15:10:46;12.90;;;9.10;;
19193;SDS011;9729;52.296;13.260;2022-09-25T15:13:14;9.40;;;7.87;;